Time;durP1;ratioP1;P1;durP2;ratioP2;P2;SDS_P1;SDS_P2;PMS_P1;PMS_P2;Temp;Humidity;BMP_temperature;BMP_pressure;BME280_temperature;BME280_humidity;BME280_pressure;Samples;Min_cycle;Max_cycle;Signal;HPM_P1;HPM_P2
2024/01/24 00:02:49;;;;;;;1.52;0.55;;;;;;;;;;6108394;28;20058;-86
2024/01/24 00:05:52;;;;;;;1.20;0.77;;;;;;;;;;6123461;28;20043;-86
2024/01/24 00:08:54;;;;;;;4.03;0.95;;;;;;;;;;6113709;28;20452;-87
2024/01/24 00:11:57;;;;;;;1.88;1.00;;;;;;;;;;6140809;28;20812;-86
2024/01/24 00:15:01;;;;;;;1.85;0.50;;;;;;;;;;6155948;28;20055;-86
2024/01/24 00:18:03;;;;;;;1.40;0.52;;;;;;;;;;6134560;28;20043;-86
2024/01/24 00:21:05;;;;;;;2.13;0.57;;;;;;;;;;6139747;28;20055;-87
2024/01/24 00:24:07;;;;;;;3.67;0.60;;;;;;;;;;6161299;28;20054;-87
2024/01/24 00:27:11;;;;;;;4.70;0.50;;;;;;;;;;6116145;28;20062;-86
2024/01/24 00:30:13;;;;;;;;;;;;;;;;;;6153469;28;20058;-88
2024/01/24 00:33:15;;;;;;;1.17;0.40;;;;;;;;;;6103535;28;19926;-86
2024/01/24 00:36:17;;;;;;;1.80;0.50;;;;;;;;;;6117653;28;20054;-86
2024/01/24 00:39:19;;;;;;;2.25;0.50;;;;;;;;;;6108357;28;21243;-87
2024/01/24 00:42:21;;;;;;;1.00;0.52;;;;;;;;;;6121367;28;20046;-86
2024/01/24 00:45:23;;;;;;;0.93;0.60;;;;;;;;;;6137768;28;20047;-86
2024/01/24 00:48:25;;;;;;;1.15;0.52;;;;;;;;;;6162093;28;20047;-87
2024/01/24 00:51:27;;;;;;;1.00;0.60;;;;;;;;;;6145316;28;20054;-88
2024/01/24 00:54:30;;;;;;;1.17;0.43;;;;;;;;;;6123769;28;20058;-86
2024/01/24 00:57:32;;;;;;;0.70;0.50;;;;;;;;;;6156590;28;20110;-86
2024/01/24 01:00:34;;;;;;;1.33;0.60;;;;;;;;;;6137891;28;20047;-87
2024/01/24 01:03:36;;;;;;;1.17;0.55;;;;;;;;;;6152042;28;20050;-87
2024/01/24 01:06:38;;;;;;;1.27;0.52;;;;;;;;;;6154623;28;20305;-87
2024/01/24 01:09:40;;;;;;;1.55;0.52;;;;;;;;;;6145719;28;20055;-87
2024/01/24 01:12:43;;;;;;;0.73;0.60;;;;;;;;;;6132287;28;20086;-86
2024/01/24 01:15:45;;;;;;;0.68;0.40;;;;;;;;;;6135898;28;20055;-86
2024/01/24 01:18:52;;;;;;;1.80;0.50;;;;;;;;;;6156357;28;20058;-86
2024/01/24 01:21:54;;;;;;;0.40;0.40;;;;;;;;;;6147908;28;20051;-86
2024/01/24 01:24:56;;;;;;;0.68;0.30;;;;;;;;;;6164659;28;20070;-85
2024/01/24 01:28:01;;;;;;;0.73;0.40;;;;;;;;;;6140969;28;20070;-87
2024/01/24 01:31:03;;;;;;;1.48;0.70;;;;;;;;;;6132613;28;20236;-86
2024/01/24 01:34:04;;;;;;;0.35;0.30;;;;;;;;;;6122214;28;20050;-86
2024/01/24 01:37:06;;;;;;;1.58;0.52;;;;;;;;;;6160185;28;20039;-86
2024/01/24 01:40:09;;;;;;;0.30;0.30;;;;;;;;;;6145209;28;20054;-86
2024/01/24 01:43:13;;;;;;;0.30;0.30;;;;;;;;;;6154414;28;20503;-87
2024/01/24 01:46:21;;;;;;;0.85;0.40;;;;;;;;;;6150604;28;20051;-86
2024/01/24 01:49:23;;;;;;;0.30;0.30;;;;;;;;;;6158639;28;20051;-86
2024/01/24 01:52:25;;;;;;;1.23;0.60;;;;;;;;;;6147966;28;20487;-86
2024/01/24 01:55:27;;;;;;;2.65;0.40;;;;;;;;;;6146015;28;20425;-86
2024/01/24 01:58:32;;;;;;;0.38;0.30;;;;;;;;;;6135522;28;20044;-86
2024/01/24 02:01:34;;;;;;;2.35;0.73;;;;;;;;;;6154945;28;20049;-85
2024/01/24 02:04:36;;;;;;;1.08;0.50;;;;;;;;;;6127005;28;20725;-86
2024/01/24 02:07:38;;;;;;;0.80;0.40;;;;;;;;;;6139797;28;20125;-86
2024/01/24 02:10:40;;;;;;;1.75;0.35;;;;;;;;;;6138740;28;20048;-86
2024/01/24 02:13:42;;;;;;;0.45;0.35;;;;;;;;;;6128423;28;20047;-85
2024/01/24 02:16:44;;;;;;;1.08;0.30;;;;;;;;;;6133139;28;20051;-85
2024/01/24 02:19:46;;;;;;;0.47;0.33;;;;;;;;;;6119218;28;20345;-86
2024/01/24 02:22:48;;;;;;;0.63;0.40;;;;;;;;;;6138835;28;21064;-86
2024/01/24 02:25:50;;;;;;;0.43;0.43;;;;;;;;;;6130300;28;20039;-86
2024/01/24 02:28:52;;;;;;;0.73;0.30;;;;;;;;;;6139729;28;20048;-86
2024/01/24 02:31:55;;;;;;;0.65;0.40;;;;;;;;;;6118572;28;20050;-87
2024/01/24 02:34:57;;;;;;;0.60;0.40;;;;;;;;;;6142115;28;20142;-85
2024/01/24 02:37:59;;;;;;;0.95;0.60;;;;;;;;;;6131592;28;20047;-86
2024/01/24 02:41:01;;;;;;;0.73;0.40;;;;;;;;;;6137088;28;20137;-85
2024/01/24 02:44:03;;;;;;;0.38;0.30;;;;;;;;;;6134824;28;20039;-87
2024/01/24 02:47:05;;;;;;;0.40;0.40;;;;;;;;;;6145806;28;20058;-87
2024/01/24 02:50:10;;;;;;;0.80;0.40;;;;;;;;;;6141065;28;20058;-86
2024/01/24 02:53:18;;;;;;;0.52;0.40;;;;;;;;;;6146431;28;20061;-86
2024/01/24 02:56:20;;;;;;;1.10;0.30;;;;;;;;;;6164678;28;20043;-86
2024/01/24 02:59:22;;;;;;;0.45;0.30;;;;;;;;;;6122149;28;20126;-86
2024/01/24 03:02:24;;;;;;;0.30;0.30;;;;;;;;;;6120783;28;20054;-85
2024/01/24 03:05:26;;;;;;;0.40;0.40;;;;;;;;;;6116485;28;20054;-86
2024/01/24 03:08:27;;;;;;;0.45;0.25;;;;;;;;;;6141762;28;20055;-86
2024/01/24 03:11:29;;;;;;;0.30;0.30;;;;;;;;;;6155212;28;20051;-88
2024/01/24 03:14:31;;;;;;;0.95;0.30;;;;;;;;;;6141519;28;20074;-87
2024/01/24 03:17:33;;;;;;;0.82;0.30;;;;;;;;;;6138662;28;20047;-86
2024/01/24 03:20:37;;;;;;;0.40;0.30;;;;;;;;;;6136947;28;20070;-87
2024/01/24 03:23:39;;;;;;;0.40;0.32;;;;;;;;;;6141410;28;20101;-86
2024/01/24 03:26:41;;;;;;;0.75;0.43;;;;;;;;;;6136198;28;20097;-87
2024/01/24 03:29:43;;;;;;;0.40;0.40;;;;;;;;;;6152196;28;20054;-86
2024/01/24 03:32:45;;;;;;;0.43;0.43;;;;;;;;;;6118700;28;20067;-86
2024/01/24 03:35:47;;;;;;;1.48;0.60;;;;;;;;;;6164112;28;20035;-87
2024/01/24 03:38:49;;;;;;;0.77;0.30;;;;;;;;;;6142799;28;20055;-87
2024/01/24 03:41:54;;;;;;;1.55;0.40;;;;;;;;;;6132212;28;20047;-86
2024/01/24 03:44:57;;;;;;;0.50;0.50;;;;;;;;;;6156335;28;20116;-88
2024/01/24 03:48:00;;;;;;;0.75;0.40;;;;;;;;;;6116998;28;20055;-86
2024/01/24 03:51:03;;;;;;;0.38;0.38;;;;;;;;;;6136889;28;20051;-86
2024/01/24 03:54:05;;;;;;;2.92;0.50;;;;;;;;;;6134846;28;20125;-87
2024/01/24 03:57:07;;;;;;;0.30;0.30;;;;;;;;;;6119225;28;20118;-87
2024/01/24 04:00:10;;;;;;;0.40;0.40;;;;;;;;;;6120666;28;20042;-89
2024/01/24 04:03:15;;;;;;;1.02;0.40;;;;;;;;;;6135200;28;20102;-87
2024/01/24 04:06:17;;;;;;;0.35;0.32;;;;;;;;;;6131955;28;20043;-87
2024/01/24 04:09:21;;;;;;;0.50;0.40;;;;;;;;;;6103751;28;20054;-87
2024/01/24 04:12:23;;;;;;;0.50;0.38;;;;;;;;;;6108517;28;20052;-87
2024/01/24 04:15:27;;;;;;;1.58;0.40;;;;;;;;;;6125418;28;20359;-87
2024/01/24 04:18:29;;;;;;;0.32;0.30;;;;;;;;;;6108214;28;20051;-88
2024/01/24 04:21:30;;;;;;;0.85;0.30;;;;;;;;;;6116791;28;20448;-87
2024/01/24 04:24:32;;;;;;;0.40;0.40;;;;;;;;;;6131538;28;20051;-87
2024/01/24 04:27:34;;;;;;;0.30;0.30;;;;;;;;;;6114426;28;20202;-87
2024/01/24 04:30:37;;;;;;;0.85;0.30;;;;;;;;;;6129006;28;20078;-87
2024/01/24 04:33:39;;;;;;;0.52;0.30;;;;;;;;;;6117642;28;20130;-87
2024/01/24 04:36:43;;;;;;;0.40;0.20;;;;;;;;;;6125342;28;20055;-87
2024/01/24 04:39:45;;;;;;;0.80;0.38;;;;;;;;;;6132182;28;20043;-86
2024/01/24 04:42:47;;;;;;;2.97;0.43;;;;;;;;;;6132469;28;20044;-87
2024/01/24 04:45:50;;;;;;;0.50;0.40;;;;;;;;;;6152836;28;20054;-88
2024/01/24 04:48:52;;;;;;;0.43;0.30;;;;;;;;;;6114347;28;20047;-87
2024/01/24 04:51:54;;;;;;;0.43;0.40;;;;;;;;;;6124169;28;20059;-87
2024/01/24 04:54:56;;;;;;;0.45;0.40;;;;;;;;;;6107320;28;20125;-87
2024/01/24 04:57:58;;;;;;;0.30;0.30;;;;;;;;;;6122429;28;20047;-87
2024/01/24 05:01:02;;;;;;;0.77;0.30;;;;;;;;;;6152492;28;20133;-87
2024/01/24 05:04:06;;;;;;;1.15;0.30;;;;;;;;;;6140425;28;20521;-87
2024/01/24 05:07:08;;;;;;;0.20;0.20;;;;;;;;;;6125761;28;20179;-87
2024/01/24 05:10:10;;;;;;;0.20;0.20;;;;;;;;;;6133319;28;20051;-87
2024/01/24 05:13:12;;;;;;;0.40;0.40;;;;;;;;;;6170183;28;20055;-88
2024/01/24 05:16:15;;;;;;;0.50;0.30;;;;;;;;;;6160587;28;20395;-87
2024/01/24 05:19:17;;;;;;;0.20;0.20;;;;;;;;;;6153230;28;20050;-87
2024/01/24 05:22:20;;;;;;;0.20;0.20;;;;;;;;;;6134054;28;20515;-86
2024/01/24 05:25:25;;;;;;;1.25;0.30;;;;;;;;;;6127415;28;20043;-88
2024/01/24 05:28:27;;;;;;;0.50;0.25;;;;;;;;;;6163372;28;20058;-88
2024/01/24 05:31:29;;;;;;;0.68;0.40;;;;;;;;;;6154175;28;20055;-87
2024/01/24 05:34:31;;;;;;;1.95;0.40;;;;;;;;;;6159721;28;20035;-89
2024/01/24 05:37:32;;;;;;;0.40;0.40;;;;;;;;;;6165920;28;20047;-86
2024/01/24 05:40:34;;;;;;;0.38;0.22;;;;;;;;;;6166607;28;20034;-88
2024/01/24 05:43:36;;;;;;;0.85;0.22;;;;;;;;;;6131836;28;20121;-87
2024/01/24 05:46:38;;;;;;;0.30;0.30;;;;;;;;;;6142777;28;20062;-87
2024/01/24 05:49:40;;;;;;;0.20;0.20;;;;;;;;;;6153155;28;20158;-87
2024/01/24 05:52:45;;;;;;;0.30;0.20;;;;;;;;;;6125438;28;20071;-86
2024/01/24 05:55:47;;;;;;;2.78;0.30;;;;;;;;;;6140930;28;20049;-87
2024/01/24 05:58:49;;;;;;;0.30;0.30;;;;;;;;;;6140824;28;20058;-87
2024/01/24 06:01:51;;;;;;;0.20;0.20;;;;;;;;;;6147037;28;20054;-87
2024/01/24 06:04:53;;;;;;;0.40;0.40;;;;;;;;;;6159601;28;20095;-89
2024/01/24 06:07:55;;;;;;;0.20;0.20;;;;;;;;;;6166550;28;20093;-90
2024/01/24 06:10:57;;;;;;;0.20;0.10;;;;;;;;;;6140823;28;20195;-87
2024/01/24 06:13:59;;;;;;;0.20;0.20;;;;;;;;;;6124912;28;20058;-88
2024/01/24 06:17:01;;;;;;;0.35;0.20;;;;;;;;;;6135173;28;20070;-88
2024/01/24 06:20:06;;;;;;;0.30;0.20;;;;;;;;;;6127802;28;20057;-88
2024/01/24 06:23:08;;;;;;;0.55;0.25;;;;;;;;;;6152270;28;20143;-89
2024/01/24 06:26:10;;;;;;;0.35;0.20;;;;;;;;;;6165949;28;20066;-89
2024/01/24 06:29:13;;;;;;;0.30;0.25;;;;;;;;;;6142641;28;20047;-88
2024/01/24 06:32:14;;;;;;;0.20;0.20;;;;;;;;;;6147696;28;20043;-88
2024/01/24 06:35:16;;;;;;;0.30;0.20;;;;;;;;;;6138219;28;20133;-87
2024/01/24 06:38:18;;;;;;;0.28;0.20;;;;;;;;;;6146808;28;20043;-87
2024/01/24 06:41:20;;;;;;;0.47;0.30;;;;;;;;;;6148459;28;20062;-87
2024/01/24 06:44:23;;;;;;;1.60;0.30;;;;;;;;;;6165561;28;20174;-87
2024/01/24 06:47:25;;;;;;;0.93;0.20;;;;;;;;;;6162378;28;20051;-87
2024/01/24 06:50:29;;;;;;;1.15;0.30;;;;;;;;;;6130187;28;20050;-88
2024/01/24 06:53:31;;;;;;;0.30;0.30;;;;;;;;;;6118710;28;20058;-88
2024/01/24 06:56:35;;;;;;;0.20;0.20;;;;;;;;;;6102485;28;20395;-87
2024/01/24 06:59:37;;;;;;;0.55;0.25;;;;;;;;;;6125699;28;20115;-89
2024/01/24 07:02:41;;;;;;;0.40;0.38;;;;;;;;;;6098783;28;20047;-88
2024/01/24 07:05:46;;;;;;;1.35;0.32;;;;;;;;;;6122337;28;20077;-87
2024/01/24 07:08:48;;;;;;;0.30;0.30;;;;;;;;;;6113802;28;20058;-87
2024/01/24 07:11:50;;;;;;;0.50;0.30;;;;;;;;;;6132097;28;20054;-87
2024/01/24 07:14:52;;;;;;;0.85;0.30;;;;;;;;;;6141428;28;20043;-88
2024/01/24 07:17:55;;;;;;;1.73;0.60;;;;;;;;;;6156359;28;20070;-86
2024/01/24 07:21:03;;;;;;;1.80;0.35;;;;;;;;;;6124817;28;20178;-87
2024/01/24 07:24:05;;;;;;;1.45;0.60;;;;;;;;;;6151394;28;20051;-87
2024/01/24 07:27:07;;;;;;;3.70;0.40;;;;;;;;;;6089502;28;20050;-86
2024/01/24 07:30:14;;;;;;;2.95;0.73;;;;;;;;;;6136512;28;20050;-86
2024/01/24 07:33:16;;;;;;;2.88;0.65;;;;;;;;;;6130897;28;20047;-86
2024/01/24 07:36:21;;;;;;;3.40;0.75;;;;;;;;;;6140548;28;20122;-87
2024/01/24 07:39:22;;;;;;;4.03;0.73;;;;;;;;;;6113356;28;20109;-87
2024/01/24 07:42:24;;;;;;;3.08;1.05;;;;;;;;;;6125972;28;20085;-87
2024/01/24 07:45:28;;;;;;;5.40;1.10;;;;;;;;;;6094817;28;20085;-88
2024/01/24 07:48:35;;;;;;;1.10;0.40;;;;;;;;;;6122317;28;20042;-88
2024/01/24 07:51:45;;;;;;;3.53;0.80;;;;;;;;;;6107028;28;20070;-88
2024/01/24 07:54:47;;;;;;;5.85;1.00;;;;;;;;;;6098309;28;20508;-88
2024/01/24 07:57:51;;;;;;;6.43;1.20;;;;;;;;;;6118496;28;21103;-87
2024/01/24 08:00:55;;;;;;;5.43;1.30;;;;;;;;;;6134580;28;20051;-89
2024/01/24 08:04:03;;;;;;;7.82;1.17;;;;;;;;;;6106721;28;20461;-89
2024/01/24 08:07:05;;;;;;;9.27;1.63;;;;;;;;;;6118765;28;20050;-88
2024/01/24 08:10:10;;;;;;;7.78;1.27;;;;;;;;;;6136630;28;20051;-88
2024/01/24 08:13:13;;;;;;;8.40;1.30;;;;;;;;;;6156124;28;20061;-88
2024/01/24 08:16:18;;;;;;;7.00;0.90;;;;;;;;;;6127416;28;20067;-87
2024/01/24 08:19:20;;;;;;;6.68;1.20;;;;;;;;;;6132057;28;20079;-87
2024/01/24 08:22:25;;;;;;;3.00;1.13;;;;;;;;;;6120023;28;20047;-89
2024/01/24 08:25:27;;;;;;;5.60;1.13;;;;;;;;;;6142274;28;20045;-87
2024/01/24 08:28:31;;;;;;;7.60;0.95;;;;;;;;;;6108403;28;20129;-88
2024/01/24 08:31:33;;;;;;;9.07;1.65;;;;;;;;;;6118424;28;20047;-87
2024/01/24 08:34:35;;;;;;;7.55;1.35;;;;;;;;;;6112032;28;20047;-87
2024/01/24 08:37:39;;;;;;;9.40;1.33;;;;;;;;;;6131408;28;20083;-88
2024/01/24 08:40:41;;;;;;;11.63;1.80;;;;;;;;;;6112960;28;20043;-88
2024/01/24 08:43:44;;;;;;;6.43;1.23;;;;;;;;;;6126873;28;20054;-88
2024/01/24 08:46:46;;;;;;;8.48;1.17;;;;;;;;;;6118391;28;20051;-89
2024/01/24 08:49:50;;;;;;;7.50;1.33;;;;;;;;;;6139548;28;20497;-88
2024/01/24 08:52:52;;;;;;;12.25;1.60;;;;;;;;;;6125150;28;20160;-87
2024/01/24 08:55:54;;;;;;;10.55;1.77;;;;;;;;;;6134954;28;20502;-87
2024/01/24 08:58:56;;;;;;;10.80;1.95;;;;;;;;;;6119075;28;20498;-89
2024/01/24 09:01:58;;;;;;;11.70;1.98;;;;;;;;;;6126828;28;20047;-88
2024/01/24 09:05:00;;;;;;;13.82;1.92;;;;;;;;;;6134499;28;20047;-88
2024/01/24 09:08:04;;;;;;;9.30;1.67;;;;;;;;;;6139258;28;20047;-87
2024/01/24 09:11:06;;;;;;;9.80;1.70;;;;;;;;;;6158533;28;20050;-87
2024/01/24 09:14:08;;;;;;;8.80;1.75;;;;;;;;;;6139560;28;20054;-87
2024/01/24 09:17:13;;;;;;;12.80;1.63;;;;;;;;;;6148742;28;20049;-86
2024/01/24 09:20:18;;;;;;;8.55;1.50;;;;;;;;;;6129577;28;20054;-87
2024/01/24 09:23:21;;;;;;;11.13;1.70;;;;;;;;;;6157469;28;20647;-86
2024/01/24 09:26:25;;;;;;;;;;;;;;;;;;6145870;28;20051;-87
2024/01/24 09:29:28;;;;;;;9.60;1.52;;;;;;;;;;6141891;28;19925;-86
2024/01/24 09:32:29;;;;;;;11.88;2.22;;;;;;;;;;6160023;28;20054;-87
2024/01/24 09:35:34;;;;;;;11.57;1.85;;;;;;;;;;6129684;28;20542;-86
2024/01/24 09:38:36;;;;;;;9.57;1.88;;;;;;;;;;6160889;28;20066;-87
2024/01/24 09:41:42;;;;;;;8.55;1.60;;;;;;;;;;6158510;28;20366;-86
2024/01/24 09:44:48;;;;;;;12.95;1.73;;;;;;;;;;6163502;28;20047;-87
2024/01/24 09:47:51;;;;;;;15.63;2.50;;;;;;;;;;6156107;28;20053;-87
2024/01/24 09:50:53;;;;;;;9.73;2.08;;;;;;;;;;6141516;28;20047;-87
2024/01/24 09:53:58;;;;;;;13.38;1.77;;;;;;;;;;6159016;28;20051;-87
2024/01/24 09:57:01;;;;;;;13.93;1.90;;;;;;;;;;6159299;28;20055;-86
2024/01/24 10:00:04;;;;;;;;;;;;;;;;;;6141934;28;20109;-87
2024/01/24 10:03:06;;;;;;;10.25;1.98;;;;;;;;;;6123924;28;20362;-86
2024/01/24 10:06:11;;;;;;;9.07;2.40;;;;;;;;;;6158061;28;20042;-86
2024/01/24 10:09:14;;;;;;;14.48;2.47;;;;;;;;;;6132826;28;20093;-87
2024/01/24 10:12:16;;;;;;;11.65;2.05;;;;;;;;;;6125710;28;20066;-87
2024/01/24 10:15:20;;;;;;;10.90;1.53;;;;;;;;;;6147884;28;20058;-87
2024/01/24 10:18:24;;;;;;;8.65;1.98;;;;;;;;;;6155560;28;20046;-88
2024/01/24 10:21:26;;;;;;;19.38;2.35;;;;;;;;;;6111886;28;21002;-89
2024/01/24 10:24:31;;;;;;;11.65;2.00;;;;;;;;;;6152549;28;20105;-89
2024/01/24 10:27:34;;;;;;;8.82;1.48;;;;;;;;;;6116756;28;20047;-89
2024/01/24 10:30:36;;;;;;;11.02;2.15;;;;;;;;;;6141075;28;20529;-88
2024/01/24 10:33:39;;;;;;;11.27;1.85;;;;;;;;;;6137483;28;20050;-86
2024/01/24 10:36:42;;;;;;;10.30;2.10;;;;;;;;;;6132032;28;20058;-86
2024/01/24 10:39:48;;;;;;;10.98;1.83;;;;;;;;;;6137684;28;20117;-85
2024/01/24 10:42:53;;;;;;;8.50;1.80;;;;;;;;;;6145291;28;20066;-87
2024/01/24 10:45:57;;;;;;;13.05;2.03;;;;;;;;;;6156803;28;20047;-87
2024/01/24 10:49:00;;;;;;;;;;;;;;;;;;6145094;28;20070;-87
2024/01/24 10:52:03;;;;;;;15.32;2.00;;;;;;;;;;6119562;28;20012;-86
2024/01/24 10:55:07;;;;;;;13.45;2.25;;;;;;;;;;6139490;28;20051;-86
2024/01/24 10:58:10;;;;;;;10.32;1.70;;;;;;;;;;6126201;28;20051;-86
2024/01/24 11:01:12;;;;;;;;;;;;;;;;;;6116528;28;20054;-87
2024/01/24 11:04:19;;;;;;;16.75;2.28;;;;;;;;;;6124637;28;20678;-86
2024/01/24 11:07:34;;;;;;;10.70;1.98;;;;;;;;;;6112675;28;20527;-87
2024/01/24 11:10:41;;;;;;;14.50;1.90;;;;;;;;;;6136686;28;20498;-86
2024/01/24 11:13:44;;;;;;;9.30;2.17;;;;;;;;;;6133806;28;20073;-86
2024/01/24 11:16:46;;;;;;;;;;;;;;;;;;6137554;28;20236;-87
2024/01/24 11:19:48;;;;;;;7.85;1.75;;;;;;;;;;6150411;28;19922;-86
2024/01/24 11:22:53;;;;;;;12.32;2.38;;;;;;;;;;6134983;28;20425;-86
2024/01/24 11:25:55;;;;;;;10.40;2.08;;;;;;;;;;6161993;28;20190;-86
2024/01/24 11:29:15;;;;;;;18.08;2.67;;;;;;;;;;6118256;28;20342;-86
2024/01/24 11:32:54;;;;;;;10.10;1.77;;;;;;;;;;6138045;28;20106;-86
2024/01/24 11:35:56;;;;;;;10.80;1.90;;;;;;;;;;6121102;28;20055;-86
2024/01/24 11:39:02;;;;;;;10.60;1.92;;;;;;;;;;6120402;28;20185;-87
2024/01/24 11:42:23;;;;;;;10.38;2.22;;;;;;;;;;6110066;28;20048;-86
2024/01/24 11:45:27;;;;;;;13.35;2.47;;;;;;;;;;6144930;28;20054;-86
2024/01/24 11:48:34;;;;;;;10.02;1.90;;;;;;;;;;6108639;28;20051;-87
2024/01/24 11:51:37;;;;;;;11.68;1.83;;;;;;;;;;6125442;28;20050;-87
2024/01/24 11:54:50;;;;;;;15.32;2.72;;;;;;;;;;6130352;28;20049;-89
2024/01/24 11:57:52;;;;;;;;;;;;;;;;;;6174788;28;20034;-87
2024/01/24 12:00:56;;;;;;;9.55;1.83;;;;;;;;;;6148061;28;19923;-87
2024/01/24 12:03:58;;;;;;;15.57;2.80;;;;;;;;;;6144481;28;20403;-88
2024/01/24 12:07:01;;;;;;;12.03;2.97;;;;;;;;;;6159826;28;20057;-88
2024/01/24 12:10:07;;;;;;;11.68;2.28;;;;;;;;;;6110159;28;20047;-87
2024/01/24 12:13:13;;;;;;;8.88;1.95;;;;;;;;;;6126075;28;20062;-87
2024/01/24 12:16:18;;;;;;;14.68;2.60;;;;;;;;;;6130511;28;20525;-87
2024/01/24 12:19:21;;;;;;;19.88;2.20;;;;;;;;;;6104854;28;20050;-86
2024/01/24 12:22:24;;;;;;;10.90;2.10;;;;;;;;;;6138777;28;20193;-88
2024/01/24 12:25:28;;;;;;;12.95;2.45;;;;;;;;;;6118814;28;20042;-88
2024/01/24 12:28:32;;;;;;;16.83;2.90;;;;;;;;;;6132970;28;20066;-87
2024/01/24 12:31:38;;;;;;;12.65;2.67;;;;;;;;;;6146401;28;20051;-89
2024/01/24 12:34:47;;;;;;;11.40;1.55;;;;;;;;;;6111817;28;20055;-88
2024/01/24 12:37:49;;;;;;;9.18;2.28;;;;;;;;;;6155154;28;20050;-89
2024/01/24 12:40:54;;;;;;;18.90;2.67;;;;;;;;;;6128991;28;20054;-89
2024/01/24 12:43:57;;;;;;;12.63;2.75;;;;;;;;;;6130104;28;20153;-91
2024/01/24 12:47:01;;;;;;;13.25;2.13;;;;;;;;;;6109794;28;20495;-90
2024/01/24 12:50:05;;;;;;;11.82;1.85;;;;;;;;;;6132002;28;20057;-90
2024/01/24 12:53:08;;;;;;;11.23;1.95;;;;;;;;;;6109371;28;20144;-89
2024/01/24 12:56:15;;;;;;;17.83;2.90;;;;;;;;;;6138802;28;20071;-90
2024/01/24 12:59:19;;;;;;;12.32;2.28;;;;;;;;;;6151325;28;20257;-88
2024/01/24 13:02:23;;;;;;;11.75;2.15;;;;;;;;;;6108077;28;20685;-88
2024/01/24 13:05:25;;;;;;;11.70;2.33;;;;;;;;;;6135456;28;20050;-88
2024/01/24 13:08:40;;;;;;;12.02;1.95;;;;;;;;;;6116912;28;20066;-88
2024/01/24 13:11:42;;;;;;;12.57;2.03;;;;;;;;;;6112763;28;20128;-88
2024/01/24 13:14:44;;;;;;;11.88;2.65;;;;;;;;;;6109662;28;20450;-87
2024/01/24 13:17:46;;;;;;;10.57;1.95;;;;;;;;;;6148038;28;20414;-87
2024/01/24 13:20:51;;;;;;;12.98;2.13;;;;;;;;;;6152503;28;20181;-87
2024/01/24 13:23:57;;;;;;;12.40;1.98;;;;;;;;;;6114483;28;20181;-87
2024/01/24 13:27:00;;;;;;;16.98;2.33;;;;;;;;;;6121741;28;20126;-87
2024/01/24 13:30:02;;;;;;;7.93;1.80;;;;;;;;;;6124049;28;20086;-87
2024/01/24 13:33:05;;;;;;;16.50;1.80;;;;;;;;;;6135121;28;20478;-87
2024/01/24 13:36:09;;;;;;;11.82;1.77;;;;;;;;;;6124925;28;20164;-88
2024/01/24 13:39:14;;;;;;;15.10;2.40;;;;;;;;;;6109209;28;20051;-88
2024/01/24 13:42:17;;;;;;;15.60;2.28;;;;;;;;;;6132045;28;20193;-87
2024/01/24 13:45:19;;;;;;;9.77;1.83;;;;;;;;;;6119770;28;20047;-88
2024/01/24 13:48:21;;;;;;;12.10;1.90;;;;;;;;;;6121430;28;20043;-88
2024/01/24 13:51:23;;;;;;;12.60;2.33;;;;;;;;;;6138170;28;20077;-86
2024/01/24 13:54:39;;;;;;;12.77;2.75;;;;;;;;;;6128855;28;20257;-86
2024/01/24 13:57:41;;;;;;;10.63;2.15;;;;;;;;;;6123674;28;20318;-86
2024/01/24 14:00:47;;;;;;;11.27;1.95;;;;;;;;;;6124522;28;20051;-85
2024/01/24 14:03:51;;;;;;;14.00;2.42;;;;;;;;;;6141606;28;20100;-85
2024/01/24 14:06:53;;;;;;;14.23;2.28;;;;;;;;;;6143850;28;20142;-85
2024/01/24 14:09:55;;;;;;;14.10;2.40;;;;;;;;;;6120655;28;20540;-85
2024/01/24 14:12:57;;;;;;;14.60;2.47;;;;;;;;;;6127063;28;20106;-85
2024/01/24 14:15:59;;;;;;;14.18;2.78;;;;;;;;;;6150981;28;20059;-85
2024/01/24 14:19:01;;;;;;;17.63;2.90;;;;;;;;;;6152021;28;20465;-86
2024/01/24 14:22:03;;;;;;;19.08;3.50;;;;;;;;;;6160751;28;20062;-86
2024/01/24 14:25:07;;;;;;;21.38;2.97;;;;;;;;;;6135594;28;20058;-87
2024/01/24 14:28:09;;;;;;;14.25;2.60;;;;;;;;;;6148105;28;20095;-87
2024/01/24 14:31:11;;;;;;;16.55;2.17;;;;;;;;;;6125581;28;20054;-85
2024/01/24 14:34:13;;;;;;;18.08;2.83;;;;;;;;;;6141146;28;20043;-84
2024/01/24 14:37:15;;;;;;;16.90;2.28;;;;;;;;;;6159974;28;20051;-84
2024/01/24 14:40:17;;;;;;;17.48;2.72;;;;;;;;;;6156941;28;20047;-86
2024/01/24 14:43:19;;;;;;;14.65;2.42;;;;;;;;;;6138527;28;20054;-85
2024/01/24 14:46:21;;;;;;;14.20;2.00;;;;;;;;;;6161444;28;20071;-86
2024/01/24 14:49:26;;;;;;;17.23;2.42;;;;;;;;;;6163024;28;20314;-85
2024/01/24 14:52:28;;;;;;;20.80;2.88;;;;;;;;;;6157772;28;20066;-87
2024/01/24 14:55:30;;;;;;;14.52;2.80;;;;;;;;;;6134603;28;20245;-86
2024/01/24 14:58:33;;;;;;;13.38;1.80;;;;;;;;;;6131059;28;20047;-85
2024/01/24 15:01:35;;;;;;;9.93;1.75;;;;;;;;;;6143549;28;20115;-86
2024/01/24 15:04:37;;;;;;;18.92;3.75;;;;;;;;;;6116653;28;20044;-86
2024/01/24 15:07:40;;;;;;;12.02;1.90;;;;;;;;;;6144225;28;20441;-86
2024/01/24 15:10:42;;;;;;;18.83;3.00;;;;;;;;;;6153677;28;20085;-86
2024/01/24 15:13:44;;;;;;;19.75;2.80;;;;;;;;;;6127424;28;20039;-86
2024/01/24 15:16:48;;;;;;;17.05;3.42;;;;;;;;;;6146080;28;20053;-85
2024/01/24 15:19:50;;;;;;;12.25;2.30;;;;;;;;;;6149327;28;20403;-85
2024/01/24 15:22:52;;;;;;;16.50;2.65;;;;;;;;;;6118272;28;20509;-86
2024/01/24 15:25:54;;;;;;;11.82;1.98;;;;;;;;;;6141006;28;20070;-87
2024/01/24 15:28:56;;;;;;;9.32;1.88;;;;;;;;;;6133483;28;20051;-87
2024/01/24 15:31:58;;;;;;;16.27;3.58;;;;;;;;;;6162125;28;20050;-88
2024/01/24 15:35:01;;;;;;;;;;;;;;;;;;6116228;28;20663;-88
2024/01/24 15:38:03;;;;;;;17.13;2.38;;;;;;;;;;6136654;28;19944;-85
2024/01/24 15:41:05;;;;;;;20.77;3.05;;;;;;;;;;6132411;28;20075;-87
2024/01/24 15:44:07;;;;;;;14.63;2.55;;;;;;;;;;6120102;28;20046;-85
2024/01/24 15:47:09;;;;;;;12.38;2.97;;;;;;;;;;6153862;28;20054;-85
2024/01/24 15:50:11;;;;;;;19.27;2.50;;;;;;;;;;6139720;28;20043;-87
2024/01/24 15:53:14;;;;;;;17.52;3.33;;;;;;;;;;6135758;28;20050;-87
2024/01/24 15:56:16;;;;;;;18.27;2.60;;;;;;;;;;6117611;28;20043;-88
2024/01/24 15:59:18;;;;;;;19.10;2.50;;;;;;;;;;6150240;28;20054;-87
2024/01/24 16:02:20;;;;;;;14.40;2.50;;;;;;;;;;6151165;28;20054;-87
2024/01/24 16:05:41;;;;;;;15.75;2.75;;;;;;;;;;6134975;28;20736;-87
2024/01/24 16:08:45;;;;;;;12.98;2.53;;;;;;;;;;6126606;28;20102;-87
2024/01/24 16:11:47;;;;;;;12.77;2.70;;;;;;;;;;6141512;28;20130;-86
2024/01/24 16:14:49;;;;;;;10.25;2.53;;;;;;;;;;6129725;28;20537;-88
2024/01/24 16:17:53;;;;;;;14.65;2.92;;;;;;;;;;6136985;28;20107;-86
2024/01/24 16:20:55;;;;;;;12.60;2.50;;;;;;;;;;6129068;28;20047;-86
2024/01/24 16:23:57;;;;;;;11.15;2.05;;;;;;;;;;6150121;28;20051;-86
2024/01/24 16:27:00;;;;;;;16.43;3.07;;;;;;;;;;6121157;28;20050;-87
2024/01/24 16:30:04;;;;;;;17.02;3.15;;;;;;;;;;6136787;28;20038;-87
2024/01/24 16:33:06;;;;;;;17.25;2.72;;;;;;;;;;6152552;28;20055;-88
2024/01/24 16:36:08;;;;;;;17.38;2.75;;;;;;;;;;6110538;28;20532;-88
2024/01/24 16:39:13;;;;;;;12.00;2.28;;;;;;;;;;6123707;28;20437;-88
2024/01/24 16:42:15;;;;;;;13.90;2.97;;;;;;;;;;6135995;28;20058;-86
2024/01/24 16:45:17;;;;;;;9.20;1.97;;;;;;;;;;6132212;28;20433;-88
2024/01/24 16:48:22;;;;;;;13.77;3.33;;;;;;;;;;6128881;28;20059;-88
2024/01/24 16:51:25;;;;;;;14.70;2.70;;;;;;;;;;6132731;28;20280;-88
2024/01/24 16:54:27;;;;;;;13.57;2.30;;;;;;;;;;6137577;28;20066;-89
2024/01/24 16:57:30;;;;;;;11.90;2.67;;;;;;;;;;6130938;28;20053;-88
2024/01/24 17:00:37;;;;;;;16.00;2.40;;;;;;;;;;6120699;28;20142;-89
2024/01/24 17:03:39;;;;;;;16.85;2.80;;;;;;;;;;6124336;28;20129;-88
2024/01/24 17:06:42;;;;;;;16.25;2.58;;;;;;;;;;6118760;28;20050;-89
2024/01/24 17:09:50;;;;;;;19.80;3.53;;;;;;;;;;6117915;28;20121;-89
2024/01/24 17:12:52;;;;;;;18.02;2.40;;;;;;;;;;6127955;28;20055;-86
2024/01/24 17:15:54;;;;;;;18.88;2.65;;;;;;;;;;6151992;28;20054;-86
2024/01/24 17:18:56;;;;;;;10.38;1.85;;;;;;;;;;6131318;28;20047;-86
2024/01/24 17:21:58;;;;;;;20.17;3.08;;;;;;;;;;6105422;28;20055;-85
2024/01/24 17:25:00;;;;;;;25.05;4.10;;;;;;;;;;6108303;28;20049;-86
2024/01/24 17:28:02;;;;;;;14.75;2.50;;;;;;;;;;6142150;28;20051;-83
2024/01/24 17:31:04;;;;;;;12.55;2.63;;;;;;;;;;6129750;28;20047;-84
2024/01/24 17:34:06;;;;;;;28.08;3.30;;;;;;;;;;6135907;28;20355;-83
2024/01/24 17:37:09;;;;;;;15.27;2.97;;;;;;;;;;6146715;28;20173;-84
2024/01/24 17:40:11;;;;;;;16.70;2.38;;;;;;;;;;6165349;28;20055;-83
2024/01/24 17:43:13;;;;;;;16.15;4.50;;;;;;;;;;6158090;28;20051;-84
2024/01/24 17:46:15;;;;;;;20.80;3.25;;;;;;;;;;6136490;28;20074;-83
2024/01/24 17:49:17;;;;;;;16.00;2.47;;;;;;;;;;6118093;28;20497;-82
2024/01/24 17:52:19;;;;;;;26.40;3.85;;;;;;;;;;6130071;28;20047;-83
2024/01/24 17:55:21;;;;;;;12.25;2.83;;;;;;;;;;6135345;28;20818;-83
2024/01/24 17:58:22;;;;;;;17.77;2.70;;;;;;;;;;6137296;28;20058;-82
2024/01/24 18:01:24;;;;;;;14.27;2.55;;;;;;;;;;6137778;28;20494;-83
2024/01/24 18:04:26;;;;;;;16.00;3.03;;;;;;;;;;6109010;28;20043;-83
2024/01/24 18:07:29;;;;;;;16.33;3.43;;;;;;;;;;6142953;28;20193;-82
2024/01/24 18:10:31;;;;;;;17.17;2.83;;;;;;;;;;6131895;28;20047;-82
2024/01/24 18:13:33;;;;;;;15.43;2.80;;;;;;;;;;6145558;28;20051;-83
2024/01/24 18:16:35;;;;;;;15.52;2.97;;;;;;;;;;6130062;28;20051;-85